createdAt,value
2019-01-13T00:00:43.675Z,51.30
2019-01-13T00:03:12.233Z,51.30
2019-01-13T00:05:40.511Z,51.30
2019-01-13T00:08:08.826Z,51.30
2019-01-13T00:10:37.109Z,51.30
2019-01-13T00:13:05.403Z,51.30
2019-01-13T00:15:33.722Z,51.30
2019-01-13T00:18:02.010Z,51.40
2019-01-13T00:20:30.298Z,51.30
2019-01-13T00:22:58.615Z,51.30
2019-01-13T00:25:27.158Z,51.40
2019-01-13T00:27:55.474Z,51.30
2019-01-13T00:30:24.022Z,51.30
2019-01-13T00:32:52.546Z,51.50
2019-01-13T00:35:20.869Z,51.50
2019-01-13T00:37:49.146Z,51.50
2019-01-13T00:40:19.432Z,51.70
2019-01-13T00:42:47.956Z,51.60
2019-01-13T00:45:18.234Z,51.70
2019-01-13T00:47:46.546Z,51.90
2019-01-13T00:50:15.748Z,51.60
2019-01-13T00:52:44.098Z,51.50
2019-01-13T00:55:13.806Z,51.50
2019-01-13T00:57:42.089Z,51.50
2019-01-13T01:00:17.355Z,51.50
2019-01-13T01:02:45.701Z,51.60
2019-01-13T01:05:14.010Z,51.60
2019-01-13T01:07:42.273Z,51.20
2019-01-13T01:10:13.676Z,51.10
2019-01-13T01:12:42.228Z,50.60
2019-01-13T01:15:11.155Z,50.60
2019-01-13T01:17:39.706Z,50.80
2019-01-13T01:20:15.480Z,50.90
2019-01-13T01:22:43.783Z,51.00
2019-01-13T01:25:14.571Z,50.90
2019-01-13T01:27:43.120Z,51.10
2019-01-13T01:30:16.795Z,51.20
2019-01-13T01:32:45.340Z,51.00
2019-01-13T01:35:13.872Z,51.10
2019-01-13T01:37:42.170Z,51.10
2019-01-13T01:40:13.494Z,50.90
2019-01-13T01:42:41.794Z,50.90
2019-01-13T01:45:12.281Z,51.60
2019-01-13T01:47:40.810Z,50.80
2019-01-13T01:50:11.249Z,50.80
2019-01-13T01:52:39.537Z,50.70
2019-01-13T01:55:13.483Z,50.70
2019-01-13T01:57:41.770Z,50.80
2019-01-13T02:00:16.449Z,50.70
2019-01-13T02:02:45.274Z,50.80
2019-01-13T02:05:13.813Z,50.90
2019-01-13T02:07:42.110Z,50.90
2019-01-13T02:10:13.442Z,50.90
2019-01-13T02:12:41.744Z,50.90
2019-01-13T02:15:13.662Z,51.10
2019-01-13T02:17:41.961Z,51.10
2019-01-13T02:20:13.190Z,51.20
2019-01-13T02:22:41.494Z,51.30
2019-01-13T02:25:12.662Z,51.20
2019-01-13T02:27:41.226Z,51.40
2019-01-13T02:30:12.513Z,51.40
2019-01-13T02:32:41.048Z,51.40
2019-01-13T02:35:09.770Z,51.40
2019-01-13T02:37:38.076Z,51.40
2019-01-13T02:40:09.972Z,52.40
2019-01-13T02:42:38.281Z,51.70
2019-01-13T02:45:10.050Z,51.60
2019-01-13T02:47:38.345Z,51.30
2019-01-13T02:50:08.770Z,51.20
2019-01-13T02:52:37.072Z,51.10
2019-01-13T02:55:06.358Z,51.10
2019-01-13T02:57:34.911Z,51.10
2019-01-13T03:00:05.824Z,51.20
2019-01-13T03:02:34.354Z,51.10
2019-01-13T03:05:02.911Z,51.30
2019-01-13T03:07:31.443Z,51.40
2019-01-13T03:09:59.747Z,51.40
2019-01-13T03:12:28.058Z,51.40
2019-01-13T03:14:56.342Z,51.50
2019-01-13T03:17:24.655Z,51.60
2019-01-13T03:19:52.941Z,51.40
2019-01-13T03:22:21.222Z,51.50
2019-01-13T03:24:49.767Z,51.60
2019-01-13T03:27:18.303Z,51.40
2019-01-13T03:29:46.922Z,51.40
2019-01-13T03:32:15.247Z,51.40
2019-01-13T03:34:43.667Z,51.50
2019-01-13T03:37:12.204Z,51.50
2019-01-13T03:39:40.485Z,51.50
2019-01-13T03:42:08.786Z,51.60
2019-01-13T03:44:37.068Z,51.60
2019-01-13T03:47:05.358Z,51.60
2019-01-13T03:49:33.645Z,51.60
2019-01-13T03:52:02.187Z,51.70
2019-01-13T03:54:30.472Z,51.70
2019-01-13T03:56:58.774Z,51.70
2019-01-13T03:59:27.326Z,51.70
2019-01-13T04:01:55.618Z,51.70
2019-01-13T04:04:24.162Z,51.60
2019-01-13T04:06:52.471Z,51.60
2019-01-13T04:09:20.747Z,51.60
2019-01-13T04:11:49.024Z,51.60
2019-01-13T04:14:17.409Z,51.60
2019-01-13T04:16:45.713Z,51.60
2019-01-13T04:19:14.000Z,51.60
2019-01-13T04:21:42.292Z,51.60
2019-01-13T04:24:10.718Z,51.40
2019-01-13T04:26:39.003Z,51.60
2019-01-13T04:29:07.553Z,51.50
2019-01-13T04:31:36.087Z,51.40
2019-01-13T04:34:04.644Z,51.50
2019-01-13T04:36:33.182Z,51.50
2019-01-13T04:39:01.477Z,51.60
2019-01-13T04:41:30.038Z,51.60
2019-01-13T04:43:58.315Z,51.60
2019-01-13T04:46:26.831Z,51.50
2019-01-13T04:48:55.549Z,51.50
2019-01-13T04:51:24.097Z,51.40
2019-01-13T04:53:52.627Z,51.40
2019-01-13T04:56:21.167Z,51.50
2019-01-13T04:58:49.464Z,51.40
2019-01-13T05:01:18.026Z,51.40
2019-01-13T05:03:46.307Z,51.50
2019-01-13T05:06:14.845Z,51.50
2019-01-13T05:08:43.158Z,51.40
2019-01-13T05:11:11.685Z,51.40
2019-01-13T05:13:40.246Z,51.60
2019-01-13T05:16:08.522Z,51.50
2019-01-13T05:18:36.803Z,51.40
2019-01-13T05:21:05.341Z,51.40
2019-01-13T05:23:33.631Z,51.40
2019-01-13T05:26:01.931Z,51.40
2019-01-13T05:28:30.218Z,51.50
2019-01-13T05:30:58.782Z,51.40
2019-01-13T05:33:27.078Z,51.40
2019-01-13T05:35:55.619Z,51.40
2019-01-13T05:38:23.903Z,51.40
2019-01-13T05:40:52.208Z,51.50
2019-01-13T05:43:20.486Z,51.40
2019-01-13T05:45:49.033Z,51.40
2019-01-13T05:48:17.572Z,51.40
2019-01-13T05:50:45.854Z,51.40
2019-01-13T05:53:14.142Z,51.50
2019-01-13T05:55:42.421Z,51.40
2019-01-13T05:58:10.714Z,51.40
2019-01-13T06:00:39.166Z,51.40
2019-01-13T06:03:07.717Z,51.50
2019-01-13T06:05:36.021Z,51.40
2019-01-13T06:08:04.575Z,51.30
2019-01-13T06:10:32.850Z,51.40
2019-01-13T06:13:01.145Z,51.30
2019-01-13T06:15:29.426Z,51.40
2019-01-13T06:17:57.967Z,51.30
2019-01-13T06:20:26.245Z,51.40
2019-01-13T06:22:54.790Z,51.30
2019-01-13T06:25:23.079Z,51.40
2019-01-13T06:27:51.365Z,51.30
2019-01-13T06:30:21.042Z,51.30
2019-01-13T06:32:49.584Z,51.40
2019-01-13T06:35:18.122Z,51.30
2019-01-13T06:37:46.418Z,51.30
2019-01-13T06:40:16.458Z,51.40
2019-01-13T06:42:44.808Z,51.40
2019-01-13T06:45:18.855Z,51.10
2019-01-13T06:47:47.131Z,51.20
2019-01-13T06:50:15.951Z,50.70
2019-01-13T06:52:44.478Z,50.70
2019-01-13T06:55:12.851Z,50.60
2019-01-13T06:57:41.144Z,50.70
2019-01-13T07:00:15.378Z,50.60
2019-01-13T07:02:43.896Z,50.60
2019-01-13T07:05:12.449Z,50.50
2019-01-13T07:07:40.754Z,50.60
2019-01-13T07:10:11.027Z,50.70
2019-01-13T07:12:39.557Z,50.80
2019-01-13T07:15:10.820Z,50.80
2019-01-13T07:17:39.379Z,50.70
2019-01-13T07:20:10.597Z,50.50
2019-01-13T07:22:39.161Z,50.50
2019-01-13T07:25:07.515Z,50.30
2019-01-13T07:27:35.806Z,50.40
2019-01-13T07:30:07.875Z,50.80
2019-01-13T07:32:36.205Z,50.30
2019-01-13T07:35:05.665Z,50.20
2019-01-13T07:37:33.961Z,50.30
2019-01-13T07:40:02.583Z,50.20
2019-01-13T07:42:31.095Z,50.20
2019-01-13T07:44:59.401Z,50.20
2019-01-13T07:47:27.693Z,50.20
2019-01-13T07:49:55.990Z,50.20
2019-01-13T07:52:24.525Z,50.30
2019-01-13T07:54:52.910Z,50.20
2019-01-13T07:57:21.178Z,50.20
2019-01-13T07:59:49.712Z,50.20
2019-01-13T08:02:18.188Z,50.50
2019-01-13T08:04:46.463Z,50.20
2019-01-13T08:07:14.766Z,50.10
2019-01-13T08:09:43.296Z,50.20
2019-01-13T08:12:11.846Z,50.20
2019-01-13T08:14:40.134Z,50.20
2019-01-13T08:17:08.421Z,50.20
2019-01-13T08:19:36.715Z,50.10
2019-01-13T08:22:05.246Z,50.10
2019-01-13T08:24:33.782Z,50.10
2019-01-13T08:27:02.346Z,50.10
2019-01-13T08:29:30.884Z,50.20
2019-01-13T08:31:59.257Z,50.20
2019-01-13T08:34:27.615Z,50.20
2019-01-13T08:36:55.899Z,50.10
2019-01-13T08:39:24.210Z,50.20
2019-01-13T08:41:52.748Z,50.20
2019-01-13T08:44:21.060Z,50.20
2019-01-13T08:46:49.434Z,50.20
2019-01-13T08:49:17.818Z,50.20
2019-01-13T08:51:46.444Z,50.20
2019-01-13T08:54:14.964Z,50.20
2019-01-13T08:56:43.263Z,50.20
2019-01-13T08:59:11.786Z,50.20
2019-01-13T09:01:40.086Z,50.20
2019-01-13T09:04:08.645Z,50.20
2019-01-13T09:06:37.192Z,50.20
2019-01-13T09:09:08.139Z,50.20
2019-01-13T09:11:36.674Z,50.20
2019-01-13T09:14:04.985Z,50.20
2019-01-13T09:16:33.513Z,50.20
2019-01-13T09:19:02.053Z,50.20
2019-01-13T09:21:30.607Z,50.20
2019-01-13T09:23:59.159Z,50.20
2019-01-13T09:26:27.722Z,50.20
2019-01-13T09:28:56.250Z,50.20
2019-01-13T09:31:24.546Z,50.20
2019-01-13T09:33:53.115Z,50.20
2019-01-13T09:36:21.659Z,50.20
2019-01-13T09:38:49.956Z,50.20
2019-01-13T09:41:18.262Z,50.20
2019-01-13T09:43:46.539Z,50.20
2019-01-13T09:46:15.106Z,50.20
2019-01-13T09:48:43.668Z,50.20
2019-01-13T09:51:12.191Z,50.20
2019-01-13T09:53:40.758Z,50.20
2019-01-13T09:56:09.311Z,50.20
2019-01-13T09:58:37.852Z,50.10
2019-01-13T10:01:06.440Z,50.20
2019-01-13T10:03:35.003Z,50.30
2019-01-13T10:06:03.352Z,50.20
2019-01-13T10:08:31.654Z,50.20
2019-01-13T10:11:00.198Z,50.20
2019-01-13T10:13:28.750Z,50.20
2019-01-13T10:15:57.290Z,50.20
2019-01-13T10:18:25.847Z,50.30
2019-01-13T10:20:54.122Z,50.30
2019-01-13T10:23:22.407Z,50.30
2019-01-13T10:25:50.967Z,50.30
2019-01-13T10:28:19.241Z,50.30
2019-01-13T10:30:47.527Z,50.30
2019-01-13T10:33:15.827Z,50.30
2019-01-13T10:35:44.383Z,50.30
2019-01-13T10:38:12.660Z,50.30
2019-01-13T10:40:40.962Z,50.30
2019-01-13T10:43:09.247Z,50.30
2019-01-13T10:45:37.774Z,50.30
2019-01-13T10:48:06.319Z,50.40
2019-01-13T10:50:34.849Z,50.30
2019-01-13T10:53:03.228Z,50.30
2019-01-13T10:55:31.830Z,50.40
2019-01-13T10:58:00.118Z,50.40
2019-01-13T11:00:30.513Z,50.40
2019-01-13T11:03:02.309Z,50.40
2019-01-13T11:05:29.303Z,50.40
2019-01-13T11:07:57.589Z,50.40
2019-01-13T11:10:25.873Z,50.40
2019-01-13T11:12:54.179Z,50.40
2019-01-13T11:15:22.471Z,50.40
2019-01-13T11:17:50.743Z,50.40
2019-01-13T11:20:24.986Z,50.40
2019-01-13T11:22:53.537Z,50.40
2019-01-13T11:25:21.813Z,50.40
2019-01-13T11:27:50.119Z,50.40
2019-01-13T11:30:23.861Z,50.40
2019-01-13T11:32:52.239Z,50.40
2019-01-13T11:35:20.802Z,50.40
2019-01-13T11:37:49.127Z,50.40
2019-01-13T11:40:25.067Z,50.50
2019-01-13T11:42:53.455Z,50.60
2019-01-13T11:45:21.757Z,50.60
2019-01-13T11:47:50.287Z,50.60
2019-01-13T11:50:20.679Z,50.90
2019-01-13T11:52:48.965Z,51.00
2019-01-13T11:55:17.626Z,51.40
2019-01-13T11:57:46.166Z,51.40
2019-01-13T12:00:23.126Z,51.20
2019-01-13T12:02:51.408Z,51.20
2019-01-13T12:05:19.951Z,51.20
2019-01-13T12:07:48.484Z,51.20
2019-01-13T12:10:18.978Z,51.10
2019-01-13T12:12:47.598Z,51.10
2019-01-13T12:15:17.396Z,51.10
2019-01-13T12:17:45.695Z,51.10
2019-01-13T12:20:16.214Z,51.10
2019-01-13T12:22:44.766Z,51.10
2019-01-13T12:25:15.189Z,51.30
2019-01-13T12:27:43.746Z,52.30
2019-01-13T12:30:15.610Z,51.80
2019-01-13T12:32:43.899Z,51.80
2019-01-13T12:35:12.426Z,51.60
2019-01-13T12:37:40.725Z,51.60
2019-01-13T12:40:12.508Z,51.70
2019-01-13T12:42:40.818Z,51.70
2019-01-13T12:45:12.151Z,51.80
2019-01-13T12:47:40.932Z,51.70
2019-01-13T12:50:12.888Z,51.90
2019-01-13T12:52:41.181Z,51.90
2019-01-13T12:55:09.546Z,52.00
2019-01-13T12:57:38.586Z,51.90
2019-01-13T13:00:13.288Z,52.50
2019-01-13T13:02:41.839Z,53.50
2019-01-13T13:05:12.150Z,52.50
2019-01-13T13:07:40.443Z,52.60
2019-01-13T13:10:20.682Z,52.20
2019-01-13T13:12:49.216Z,52.60
2019-01-13T13:15:17.525Z,52.70
2019-01-13T13:17:46.057Z,52.80
2019-01-13T13:20:15.599Z,52.80
2019-01-13T13:22:45.524Z,52.80
2019-01-13T13:25:14.274Z,53.00
2019-01-13T13:27:42.838Z,52.90
2019-01-13T13:30:20.494Z,52.70
2019-01-13T13:32:48.793Z,52.80
2019-01-13T13:35:17.347Z,52.70
2019-01-13T13:37:45.932Z,52.70
2019-01-13T13:40:17.286Z,52.70
2019-01-13T13:42:45.586Z,52.50
2019-01-13T13:45:14.153Z,52.60
2019-01-13T13:47:42.691Z,52.50
2019-01-13T13:50:13.535Z,52.60
2019-01-13T13:52:41.835Z,52.80
2019-01-13T13:55:10.903Z,52.70
2019-01-13T13:57:39.460Z,52.90
2019-01-13T14:00:11.272Z,52.80
2019-01-13T14:02:39.559Z,53.00
2019-01-13T14:05:08.594Z,53.40
2019-01-13T14:07:36.891Z,52.60
2019-01-13T14:10:08.429Z,52.60
2019-01-13T14:12:36.743Z,52.60
2019-01-13T14:15:07.266Z,52.50
2019-01-13T14:17:35.807Z,52.50
2019-01-13T14:20:18.225Z,52.40
2019-01-13T14:22:46.766Z,52.40
2019-01-13T14:25:15.071Z,52.30
2019-01-13T14:27:43.362Z,52.20
2019-01-13T14:30:14.725Z,52.10
2019-01-13T14:32:43.313Z,52.10
2019-01-13T14:35:11.883Z,52.10
2019-01-13T14:37:40.445Z,52.20
2019-01-13T14:40:20.500Z,52.10
2019-01-13T14:42:49.145Z,52.10
2019-01-13T14:45:19.493Z,52.10
2019-01-13T14:47:48.041Z,52.10
2019-01-13T14:50:23.980Z,51.90
2019-01-13T14:52:52.462Z,52.00
2019-01-13T14:55:20.997Z,52.00
2019-01-13T14:57:49.313Z,52.10
2019-01-13T15:00:20.468Z,52.10
2019-01-13T15:02:48.994Z,51.90
2019-01-13T15:05:17.297Z,51.90
2019-01-13T15:07:45.596Z,51.90
2019-01-13T15:10:18.982Z,51.90
2019-01-13T15:12:47.547Z,51.80
2019-01-13T15:15:16.115Z,51.70
2019-01-13T15:17:44.636Z,51.70
2019-01-13T15:20:14.983Z,51.70
2019-01-13T15:22:43.522Z,51.70
2019-01-13T15:25:17.049Z,52.30
2019-01-13T15:27:45.580Z,51.80
2019-01-13T15:30:22.343Z,51.80
2019-01-13T15:32:50.643Z,51.90
2019-01-13T15:35:18.947Z,51.90
2019-01-13T15:37:47.486Z,52.00
2019-01-13T15:40:20.308Z,52.00
2019-01-13T15:42:48.612Z,52.10
2019-01-13T15:45:16.995Z,52.10
2019-01-13T15:47:45.593Z,52.10
2019-01-13T15:50:19.810Z,52.20
2019-01-13T15:52:48.165Z,52.10
2019-01-13T15:55:16.770Z,52.20
2019-01-13T15:57:45.056Z,52.30
2019-01-13T16:00:16.569Z,52.10
2019-01-13T16:02:44.859Z,52.00
2019-01-13T16:05:13.400Z,51.90
2019-01-13T16:07:41.940Z,51.90
2019-01-13T16:10:13.212Z,51.80
2019-01-13T16:12:41.510Z,51.70
2019-01-13T16:15:11.436Z,51.70
2019-01-13T16:17:40.046Z,51.70
2019-01-13T16:20:14.259Z,51.70
2019-01-13T16:22:42.792Z,51.70
2019-01-13T16:25:11.319Z,51.60
2019-01-13T16:27:39.642Z,51.60
2019-01-13T16:30:19.701Z,52.20
2019-01-13T16:32:48.276Z,51.50
2019-01-13T16:35:16.551Z,51.60
2019-01-13T16:37:45.105Z,51.70
2019-01-13T16:40:16.094Z,51.80
2019-01-13T16:42:44.377Z,51.70
2019-01-13T16:45:14.674Z,51.80
2019-01-13T16:47:42.950Z,51.90
2019-01-13T16:50:19.921Z,51.90
2019-01-13T16:52:50.149Z,51.90
2019-01-13T16:55:18.522Z,51.90
2019-01-13T16:57:47.052Z,52.00
2019-01-13T17:00:20.300Z,51.90
2019-01-13T17:02:48.597Z,52.00
2019-01-13T17:05:18.123Z,51.90
2019-01-13T17:07:46.693Z,51.70
2019-01-13T17:10:19.750Z,51.70
2019-01-13T17:12:48.318Z,51.70
2019-01-13T17:15:18.674Z,51.60
2019-01-13T17:17:47.278Z,51.60
2019-01-13T17:20:17.946Z,51.50
2019-01-13T17:22:46.502Z,51.40
2019-01-13T17:25:25.435Z,51.40
2019-01-13T17:27:53.980Z,51.50
2019-01-13T17:30:27.202Z,51.40
2019-01-13T17:32:55.502Z,51.40
2019-01-13T17:35:24.241Z,51.40
2019-01-13T17:37:52.743Z,51.40
2019-01-13T17:40:22.879Z,51.50
2019-01-13T17:42:51.245Z,51.50
2019-01-13T17:45:21.366Z,51.60
2019-01-13T17:47:49.917Z,51.60
2019-01-13T17:50:21.502Z,51.60
2019-01-13T17:52:50.069Z,51.70
2019-01-13T17:55:20.442Z,51.60
2019-01-13T17:57:48.801Z,51.50
2019-01-13T18:00:25.794Z,51.30
2019-01-13T18:02:55.195Z,51.40
2019-01-13T18:05:23.738Z,51.30
2019-01-13T18:07:52.321Z,51.40
2019-01-13T18:10:20.871Z,51.40
2019-01-13T18:12:49.438Z,51.50
2019-01-13T18:15:17.974Z,51.60
2019-01-13T18:17:46.255Z,51.50
2019-01-13T18:20:17.622Z,51.60
2019-01-13T18:22:46.143Z,51.70
2019-01-13T18:25:14.439Z,51.70
2019-01-13T18:27:43.033Z,51.80
2019-01-13T18:30:23.009Z,51.90
2019-01-13T18:32:51.310Z,51.90
2019-01-13T18:35:21.047Z,52.00
2019-01-13T18:37:49.590Z,52.00
2019-01-13T18:40:22.023Z,52.10
2019-01-13T18:42:50.306Z,52.40
2019-01-13T18:45:20.775Z,52.30
2019-01-13T18:47:49.300Z,52.20
2019-01-13T18:50:21.806Z,52.10
2019-01-13T18:52:55.969Z,52.10
2019-01-13T18:55:24.511Z,52.10
2019-01-13T18:57:54.354Z,52.00
2019-01-13T19:00:25.750Z,52.00
2019-01-13T19:02:57.206Z,51.90
2019-01-13T19:05:27.047Z,51.90
2019-01-13T19:07:55.584Z,51.80
2019-01-13T19:10:39.158Z,51.90
2019-01-13T19:13:16.739Z,52.00
2019-01-13T19:15:47.763Z,51.90
2019-01-13T19:18:16.297Z,52.10
2019-01-13T19:20:44.603Z,52.10
2019-01-13T19:23:17.737Z,52.10
2019-01-13T19:25:45.770Z,52.00
2019-01-13T19:28:14.775Z,52.00
2019-01-13T19:30:43.333Z,52.10
2019-01-13T19:33:13.964Z,52.10
2019-01-13T19:35:42.343Z,52.10
2019-01-13T19:38:10.645Z,52.10
2019-01-13T19:40:38.951Z,52.10
2019-01-13T19:43:07.486Z,52.00
2019-01-13T19:45:36.062Z,52.10
2019-01-13T19:48:04.620Z,52.10
2019-01-13T19:50:33.176Z,52.00
2019-01-13T19:53:01.733Z,52.00
2019-01-13T19:55:30.034Z,51.90
2019-01-13T19:57:58.586Z,52.10
2019-01-13T20:00:32.307Z,51.90
2019-01-13T20:03:00.610Z,51.80
2019-01-13T20:05:29.164Z,51.60
2019-01-13T20:07:57.452Z,51.70
2019-01-13T20:10:26.006Z,51.80
2019-01-13T20:12:54.544Z,51.80
2019-01-13T20:15:23.100Z,51.80
2019-01-13T20:17:51.730Z,51.70
2019-01-13T20:20:21.290Z,51.50
2019-01-13T20:22:49.911Z,51.40
2019-01-13T20:25:18.954Z,51.40
2019-01-13T20:27:47.262Z,51.40
2019-01-13T20:30:27.367Z,51.30
2019-01-13T20:32:55.911Z,51.10
2019-01-13T20:35:24.441Z,51.00
2019-01-13T20:37:52.743Z,51.10
2019-01-13T20:40:21.290Z,51.10
2019-01-13T20:42:49.956Z,51.20
2019-01-13T20:45:35.893Z,51.20
2019-01-13T20:48:04.599Z,51.30
2019-01-13T20:50:33.297Z,51.30
2019-01-13T20:53:01.826Z,51.30
2019-01-13T20:55:30.410Z,51.30
2019-01-13T20:57:58.707Z,51.30
2019-01-13T21:00:27.942Z,51.40
2019-01-13T21:02:56.342Z,51.40
2019-01-13T21:05:26.852Z,51.40
2019-01-13T21:07:54.970Z,51.30
2019-01-13T21:10:23.275Z,51.30
2019-01-13T21:12:51.554Z,51.10
2019-01-13T21:15:36.587Z,50.90
2019-01-13T21:18:04.865Z,50.90
2019-01-13T21:20:33.415Z,50.80
2019-01-13T21:23:01.943Z,50.80
2019-01-13T21:25:30.239Z,50.90
2019-01-13T21:27:59.689Z,50.80
2019-01-13T21:30:32.762Z,50.80
2019-01-13T21:33:01.309Z,50.90
2019-01-13T21:35:33.758Z,51.50
2019-01-13T21:37:59.638Z,51.00
2019-01-13T21:40:28.138Z,51.00
2019-01-13T21:42:56.742Z,51.10
2019-01-13T21:45:25.534Z,51.10
2019-01-13T21:47:53.874Z,51.10
2019-01-13T21:50:24.349Z,51.10
2019-01-13T21:52:52.926Z,51.10
2019-01-13T21:55:21.478Z,51.20
2019-01-13T21:57:50.039Z,51.30
2019-01-13T22:00:27.891Z,51.20
2019-01-13T22:02:56.174Z,51.30
2019-01-13T22:05:24.819Z,51.30
2019-01-13T22:07:53.475Z,51.40
2019-01-13T22:10:23.411Z,51.50
2019-01-13T22:12:52.136Z,51.50
2019-01-13T22:15:21.156Z,51.50
2019-01-13T22:17:49.707Z,51.50
2019-01-13T22:20:24.127Z,51.60
2019-01-13T22:22:53.489Z,51.50
2019-01-13T22:25:22.041Z,51.50
2019-01-13T22:27:50.569Z,51.50
2019-01-13T22:30:23.136Z,51.50
2019-01-13T22:32:51.560Z,51.60
2019-01-13T22:35:19.842Z,51.60
2019-01-13T22:37:55.250Z,51.60
2019-01-13T22:40:18.715Z,51.60
2019-01-13T22:42:47.010Z,51.70
2019-01-13T22:45:20.210Z,51.80
2019-01-13T22:47:48.491Z,51.80
2019-01-13T22:50:17.578Z,51.80
2019-01-13T22:52:46.109Z,51.80
2019-01-13T22:55:14.654Z,51.90
2019-01-13T22:57:43.014Z,51.80
2019-01-13T23:00:49.177Z,51.90
2019-01-13T23:03:17.879Z,51.80
2019-01-13T23:05:46.174Z,51.80
2019-01-13T23:08:14.462Z,51.90
2019-01-13T23:10:42.753Z,52.00
2019-01-13T23:13:11.302Z,51.90
2019-01-13T23:15:39.906Z,51.90
2019-01-13T23:18:08.187Z,51.90
2019-01-13T23:20:36.737Z,51.90
2019-01-13T23:23:05.258Z,52.00
2019-01-13T23:25:33.811Z,52.00
2019-01-13T23:28:02.086Z,52.00
2019-01-13T23:30:30.626Z,52.00
2019-01-13T23:32:59.155Z,52.30
2019-01-13T23:35:27.451Z,52.10
2019-01-13T23:37:55.739Z,51.90
2019-01-13T23:40:24.295Z,51.80
2019-01-13T23:42:52.842Z,52.00
2019-01-13T23:45:21.398Z,51.80
2019-01-13T23:47:50.018Z,51.80
2019-01-13T23:50:18.301Z,51.90
2019-01-13T23:52:46.859Z,52.00
2019-01-13T23:55:15.145Z,51.90
2019-01-13T23:57:43.710Z,52.00
